sensor_id;sensor_type;location;lat;lon;timestamp;P1;durP1;ratioP1;P2;durP2;ratioP2
82000;SDS011;71510;50.558;7.258;2023-12-20T00:01:54;4.53;;;2.65;;
82000;SDS011;71510;50.558;7.258;2023-12-20T00:04:22;5.50;;;3.30;;
82000;SDS011;71510;50.558;7.258;2023-12-20T00:06:49;4.62;;;3.65;;
82000;SDS011;71510;50.558;7.258;2023-12-20T00:09:16;5.78;;;4.03;;
82000;SDS011;71510;50.558;7.258;2023-12-20T00:11:44;5.45;;;3.85;;
82000;SDS011;71510;50.558;7.258;2023-12-20T00:14:12;7.33;;;3.80;;
82000;SDS011;71510;50.558;7.258;2023-12-20T00:16:39;6.25;;;4.00;;
82000;SDS011;71510;50.558;7.258;2023-12-20T00:19:07;10.43;;;4.95;;
82000;SDS011;71510;50.558;7.258;2023-12-20T00:21:34;12.95;;;6.30;;
82000;SDS011;71510;50.558;7.258;2023-12-20T00:24:02;13.00;;;5.60;;
82000;SDS011;71510;50.558;7.258;2023-12-20T00:26:29;39.40;;;8.28;;
82000;SDS011;71510;50.558;7.258;2023-12-20T00:28:56;12.03;;;5.05;;
82000;SDS011;71510;50.558;7.258;2023-12-20T00:31:24;9.53;;;5.55;;
82000;SDS011;71510;50.558;7.258;2023-12-20T00:33:51;12.47;;;5.55;;
82000;SDS011;71510;50.558;7.258;2023-12-20T00:36:18;12.65;;;5.05;;
82000;SDS011;71510;50.558;7.258;2023-12-20T00:38:45;10.45;;;5.90;;
82000;SDS011;71510;50.558;7.258;2023-12-20T00:41:13;9.40;;;5.83;;
82000;SDS011;71510;50.558;7.258;2023-12-20T00:43:40;10.72;;;6.05;;
82000;SDS011;71510;50.558;7.258;2023-12-20T00:46:07;10.28;;;5.95;;
82000;SDS011;71510;50.558;7.258;2023-12-20T00:48:35;12.40;;;6.95;;
82000;SDS011;71510;50.558;7.258;2023-12-20T00:51:02;9.08;;;6.37;;
82000;SDS011;71510;50.558;7.258;2023-12-20T00:53:30;13.83;;;7.10;;
82000;SDS011;71510;50.558;7.258;2023-12-20T00:55:57;10.43;;;6.83;;
82000;SDS011;71510;50.558;7.258;2023-12-20T00:58:25;14.78;;;7.70;;
82000;SDS011;71510;50.558;7.258;2023-12-20T01:00:54;9.80;;;6.22;;
82000;SDS011;71510;50.558;7.258;2023-12-20T01:03:21;8.43;;;5.95;;
82000;SDS011;71510;50.558;7.258;2023-12-20T01:05:49;13.40;;;6.75;;
82000;SDS011;71510;50.558;7.258;2023-12-20T01:08:16;7.37;;;5.53;;
82000;SDS011;71510;50.558;7.258;2023-12-20T01:10:44;10.03;;;5.75;;
82000;SDS011;71510;50.558;7.258;2023-12-20T01:13:13;9.33;;;5.60;;
82000;SDS011;71510;50.558;7.258;2023-12-20T01:15:40;11.73;;;6.70;;
82000;SDS011;71510;50.558;7.258;2023-12-20T01:18:07;11.48;;;7.00;;
82000;SDS011;71510;50.558;7.258;2023-12-20T01:20:35;13.50;;;7.45;;
82000;SDS011;71510;50.558;7.258;2023-12-20T01:23:02;10.72;;;6.45;;
82000;SDS011;71510;50.558;7.258;2023-12-20T01:25:29;14.95;;;7.00;;
82000;SDS011;71510;50.558;7.258;2023-12-20T01:27:57;9.80;;;6.65;;
82000;SDS011;71510;50.558;7.258;2023-12-20T01:30:24;13.85;;;7.50;;
82000;SDS011;71510;50.558;7.258;2023-12-20T01:32:51;8.50;;;5.35;;
82000;SDS011;71510;50.558;7.258;2023-12-20T01:35:19;25.65;;;8.90;;
82000;SDS011;71510;50.558;7.258;2023-12-20T01:37:46;18.15;;;7.10;;
82000;SDS011;71510;50.558;7.258;2023-12-20T01:40:13;13.98;;;7.55;;
82000;SDS011;71510;50.558;7.258;2023-12-20T01:42:41;16.55;;;7.92;;
82000;SDS011;71510;50.558;7.258;2023-12-20T01:45:08;12.20;;;7.05;;
82000;SDS011;71510;50.558;7.258;2023-12-20T01:47:35;22.93;;;8.23;;
82000;SDS011;71510;50.558;7.258;2023-12-20T01:50:03;16.87;;;7.70;;
82000;SDS011;71510;50.558;7.258;2023-12-20T01:52:30;16.55;;;7.33;;
82000;SDS011;71510;50.558;7.258;2023-12-20T01:54:59;18.55;;;8.33;;
82000;SDS011;71510;50.558;7.258;2023-12-20T01:57:28;16.87;;;8.10;;
82000;SDS011;71510;50.558;7.258;2023-12-20T01:59:56;13.68;;;7.47;;
82000;SDS011;71510;50.558;7.258;2023-12-20T02:02:23;12.70;;;6.30;;
82000;SDS011;71510;50.558;7.258;2023-12-20T02:04:51;10.13;;;7.03;;
82000;SDS011;71510;50.558;7.258;2023-12-20T02:07:18;6.95;;;4.83;;
82000;SDS011;71510;50.558;7.258;2023-12-20T02:09:46;7.37;;;5.70;;
82000;SDS011;71510;50.558;7.258;2023-12-20T02:12:13;7.55;;;4.85;;
82000;SDS011;71510;50.558;7.258;2023-12-20T02:14:40;8.90;;;5.85;;
82000;SDS011;71510;50.558;7.258;2023-12-20T02:17:08;11.28;;;6.87;;
82000;SDS011;71510;50.558;7.258;2023-12-20T02:19:35;10.40;;;6.17;;
82000;SDS011;71510;50.558;7.258;2023-12-20T02:22:21;9.85;;;6.35;;
82000;SDS011;71510;50.558;7.258;2023-12-20T02:24:34;9.45;;;6.08;;
82000;SDS011;71510;50.558;7.258;2023-12-20T02:27:01;9.73;;;6.80;;
82000;SDS011;71510;50.558;7.258;2023-12-20T02:29:29;10.23;;;8.18;;
82000;SDS011;71510;50.558;7.258;2023-12-20T02:31:57;14.83;;;7.67;;
82000;SDS011;71510;50.558;7.258;2023-12-20T02:34:24;14.07;;;9.20;;
82000;SDS011;71510;50.558;7.258;2023-12-20T02:36:51;12.35;;;8.33;;
82000;SDS011;71510;50.558;7.258;2023-12-20T02:39:19;18.05;;;9.45;;
82000;SDS011;71510;50.558;7.258;2023-12-20T02:41:46;17.07;;;9.40;;
82000;SDS011;71510;50.558;7.258;2023-12-20T02:44:13;11.20;;;6.53;;
82000;SDS011;71510;50.558;7.258;2023-12-20T02:46:41;12.60;;;6.70;;
82000;SDS011;71510;50.558;7.258;2023-12-20T02:49:08;10.05;;;5.53;;
82000;SDS011;71510;50.558;7.258;2023-12-20T02:51:35;14.25;;;3.65;;
82000;SDS011;71510;50.558;7.258;2023-12-20T02:54:04;7.20;;;3.08;;
82000;SDS011;71510;50.558;7.258;2023-12-20T02:56:32;9.73;;;3.45;;
82000;SDS011;71510;50.558;7.258;2023-12-20T02:58:59;8.20;;;2.92;;
82000;SDS011;71510;50.558;7.258;2023-12-20T03:01:27;9.73;;;4.55;;
82000;SDS011;71510;50.558;7.258;2023-12-20T03:03:54;10.82;;;2.85;;
82000;SDS011;71510;50.558;7.258;2023-12-20T03:06:22;9.40;;;3.20;;
82000;SDS011;71510;50.558;7.258;2023-12-20T03:08:49;12.07;;;3.42;;
82000;SDS011;71510;50.558;7.258;2023-12-20T03:11:16;8.55;;;3.70;;
82000;SDS011;71510;50.558;7.258;2023-12-20T03:13:44;17.55;;;4.37;;
82000;SDS011;71510;50.558;7.258;2023-12-20T03:16:11;11.05;;;2.95;;
82000;SDS011;71510;50.558;7.258;2023-12-20T03:18:39;11.08;;;2.95;;
82000;SDS011;71510;50.558;7.258;2023-12-20T03:21:06;11.80;;;3.02;;
82000;SDS011;71510;50.558;7.258;2023-12-20T03:23:34;14.80;;;3.70;;
82000;SDS011;71510;50.558;7.258;2023-12-20T03:26:01;10.38;;;2.90;;
82000;SDS011;71510;50.558;7.258;2023-12-20T03:28:29;11.55;;;2.85;;
82000;SDS011;71510;50.558;7.258;2023-12-20T03:30:56;11.30;;;2.85;;
82000;SDS011;71510;50.558;7.258;2023-12-20T03:33:24;7.55;;;2.40;;
82000;SDS011;71510;50.558;7.258;2023-12-20T03:35:51;17.12;;;2.30;;
82000;SDS011;71510;50.558;7.258;2023-12-20T03:38:18;6.95;;;1.90;;
82000;SDS011;71510;50.558;7.258;2023-12-20T03:40:46;12.95;;;2.70;;
82000;SDS011;71510;50.558;7.258;2023-12-20T03:43:13;8.23;;;2.22;;
82000;SDS011;71510;50.558;7.258;2023-12-20T03:45:41;6.53;;;1.67;;
82000;SDS011;71510;50.558;7.258;2023-12-20T03:48:08;7.03;;;1.65;;
82000;SDS011;71510;50.558;7.258;2023-12-20T03:50:36;8.48;;;2.05;;
82000;SDS011;71510;50.558;7.258;2023-12-20T03:53:03;11.78;;;2.80;;
82000;SDS011;71510;50.558;7.258;2023-12-20T03:55:30;9.25;;;2.30;;
82000;SDS011;71510;50.558;7.258;2023-12-20T03:57:58;9.53;;;1.82;;
82000;SDS011;71510;50.558;7.258;2023-12-20T04:00:25;13.93;;;2.72;;
82000;SDS011;71510;50.558;7.258;2023-12-20T04:02:52;12.80;;;2.25;;
82000;SDS011;71510;50.558;7.258;2023-12-20T04:05:19;13.93;;;2.52;;
82000;SDS011;71510;50.558;7.258;2023-12-20T04:07:47;11.73;;;2.33;;
82000;SDS011;71510;50.558;7.258;2023-12-20T04:10:16;18.77;;;2.30;;
82000;SDS011;71510;50.558;7.258;2023-12-20T04:12:43;8.60;;;2.95;;
82000;SDS011;71510;50.558;7.258;2023-12-20T04:15:11;8.48;;;1.62;;
82000;SDS011;71510;50.558;7.258;2023-12-20T04:17:38;15.50;;;2.10;;
82000;SDS011;71510;50.558;7.258;2023-12-20T04:20:06;9.85;;;2.05;;
82000;SDS011;71510;50.558;7.258;2023-12-20T04:22:33;6.37;;;1.57;;
82000;SDS011;71510;50.558;7.258;2023-12-20T04:25:00;10.90;;;1.87;;
82000;SDS011;71510;50.558;7.258;2023-12-20T04:27:28;11.68;;;2.35;;
82000;SDS011;71510;50.558;7.258;2023-12-20T04:29:55;16.45;;;1.95;;
82000;SDS011;71510;50.558;7.258;2023-12-20T04:32:23;8.50;;;2.47;;
82000;SDS011;71510;50.558;7.258;2023-12-20T04:34:50;9.85;;;2.27;;
82000;SDS011;71510;50.558;7.258;2023-12-20T04:37:17;9.70;;;2.08;;
82000;SDS011;71510;50.558;7.258;2023-12-20T04:39:45;14.73;;;2.25;;
82000;SDS011;71510;50.558;7.258;2023-12-20T04:42:12;17.17;;;2.25;;
82000;SDS011;71510;50.558;7.258;2023-12-20T04:44:39;8.63;;;2.00;;
82000;SDS011;71510;50.558;7.258;2023-12-20T04:47:07;7.50;;;1.72;;
82000;SDS011;71510;50.558;7.258;2023-12-20T04:49:34;13.68;;;2.25;;
82000;SDS011;71510;50.558;7.258;2023-12-20T04:52:01;13.18;;;2.55;;
82000;SDS011;71510;50.558;7.258;2023-12-20T04:54:29;10.68;;;2.00;;
82000;SDS011;71510;50.558;7.258;2023-12-20T04:56:56;10.05;;;1.85;;
82000;SDS011;71510;50.558;7.258;2023-12-20T04:59:23;10.63;;;2.77;;
82000;SDS011;71510;50.558;7.258;2023-12-20T05:01:50;11.45;;;2.80;;
82000;SDS011;71510;50.558;7.258;2023-12-20T05:04:18;9.00;;;2.08;;
82000;SDS011;71510;50.558;7.258;2023-12-20T05:06:45;9.43;;;1.95;;
82000;SDS011;71510;50.558;7.258;2023-12-20T05:09:12;12.45;;;2.40;;
82000;SDS011;71510;50.558;7.258;2023-12-20T05:11:40;7.17;;;1.95;;
82000;SDS011;71510;50.558;7.258;2023-12-20T05:14:07;11.43;;;2.12;;
82000;SDS011;71510;50.558;7.258;2023-12-20T05:16:34;8.23;;;2.52;;
82000;SDS011;71510;50.558;7.258;2023-12-20T05:19:02;7.53;;;1.85;;
82000;SDS011;71510;50.558;7.258;2023-12-20T05:21:31;9.20;;;1.87;;
82000;SDS011;71510;50.558;7.258;2023-12-20T05:23:58;10.80;;;1.95;;
82000;SDS011;71510;50.558;7.258;2023-12-20T05:26:26;12.30;;;1.98;;
82000;SDS011;71510;50.558;7.258;2023-12-20T05:28:53;10.53;;;2.37;;
82000;SDS011;71510;50.558;7.258;2023-12-20T05:31:20;9.60;;;2.45;;
82000;SDS011;71510;50.558;7.258;2023-12-20T05:33:48;8.75;;;2.30;;
82000;SDS011;71510;50.558;7.258;2023-12-20T05:36:15;18.75;;;2.67;;
82000;SDS011;71510;50.558;7.258;2023-12-20T05:38:42;8.03;;;2.35;;
82000;SDS011;71510;50.558;7.258;2023-12-20T05:41:10;14.10;;;2.70;;
82000;SDS011;71510;50.558;7.258;2023-12-20T05:43:37;11.83;;;2.90;;
82000;SDS011;71510;50.558;7.258;2023-12-20T05:46:05;7.15;;;2.45;;
82000;SDS011;71510;50.558;7.258;2023-12-20T05:48:32;9.80;;;2.47;;
82000;SDS011;71510;50.558;7.258;2023-12-20T05:50:59;14.10;;;2.87;;
82000;SDS011;71510;50.558;7.258;2023-12-20T05:53:26;10.85;;;2.95;;
82000;SDS011;71510;50.558;7.258;2023-12-20T05:55:54;10.72;;;2.80;;
82000;SDS011;71510;50.558;7.258;2023-12-20T05:58:21;12.80;;;3.35;;
82000;SDS011;71510;50.558;7.258;2023-12-20T06:00:48;15.05;;;2.95;;
82000;SDS011;71510;50.558;7.258;2023-12-20T06:03:16;13.50;;;3.00;;
82000;SDS011;71510;50.558;7.258;2023-12-20T06:05:43;8.68;;;2.10;;
82000;SDS011;71510;50.558;7.258;2023-12-20T06:08:10;14.85;;;2.98;;
82000;SDS011;71510;50.558;7.258;2023-12-20T06:10:38;10.35;;;2.60;;
82000;SDS011;71510;50.558;7.258;2023-12-20T06:13:05;10.48;;;2.90;;
82000;SDS011;71510;50.558;7.258;2023-12-20T06:15:33;13.85;;;2.95;;
82000;SDS011;71510;50.558;7.258;2023-12-20T06:18:00;14.95;;;2.70;;
82000;SDS011;71510;50.558;7.258;2023-12-20T06:20:28;12.58;;;2.17;;
82000;SDS011;71510;50.558;7.258;2023-12-20T06:22:55;11.60;;;3.52;;
82000;SDS011;71510;50.558;7.258;2023-12-20T06:25:22;15.32;;;2.60;;
82000;SDS011;71510;50.558;7.258;2023-12-20T06:27:50;18.77;;;3.40;;
82000;SDS011;71510;50.558;7.258;2023-12-20T06:30:17;15.78;;;2.35;;
82000;SDS011;71510;50.558;7.258;2023-12-20T06:32:44;13.10;;;2.47;;
82000;SDS011;71510;50.558;7.258;2023-12-20T06:35:13;11.00;;;2.92;;
82000;SDS011;71510;50.558;7.258;2023-12-20T06:37:40;19.77;;;2.92;;
82000;SDS011;71510;50.558;7.258;2023-12-20T06:40:09;14.47;;;3.33;;
82000;SDS011;71510;50.558;7.258;2023-12-20T06:42:36;9.80;;;2.87;;
82000;SDS011;71510;50.558;7.258;2023-12-20T06:45:04;11.78;;;2.50;;
82000;SDS011;71510;50.558;7.258;2023-12-20T06:47:31;13.20;;;2.95;;
82000;SDS011;71510;50.558;7.258;2023-12-20T06:49:59;8.78;;;2.60;;
82000;SDS011;71510;50.558;7.258;2023-12-20T06:52:26;14.47;;;2.58;;
82000;SDS011;71510;50.558;7.258;2023-12-20T06:54:54;13.85;;;3.12;;
82000;SDS011;71510;50.558;7.258;2023-12-20T06:57:21;13.00;;;3.10;;
82000;SDS011;71510;50.558;7.258;2023-12-20T06:59:48;11.35;;;3.35;;
82000;SDS011;71510;50.558;7.258;2023-12-20T07:02:16;17.60;;;2.87;;
82000;SDS011;71510;50.558;7.258;2023-12-20T07:04:43;15.78;;;2.75;;
82000;SDS011;71510;50.558;7.258;2023-12-20T07:07:10;11.93;;;2.85;;
82000;SDS011;71510;50.558;7.258;2023-12-20T07:09:38;15.38;;;2.50;;
82000;SDS011;71510;50.558;7.258;2023-12-20T07:12:07;14.80;;;2.42;;
82000;SDS011;71510;50.558;7.258;2023-12-20T07:14:34;10.93;;;2.80;;
82000;SDS011;71510;50.558;7.258;2023-12-20T07:17:01;11.10;;;2.62;;
82000;SDS011;71510;50.558;7.258;2023-12-20T07:19:29;14.05;;;3.30;;
82000;SDS011;71510;50.558;7.258;2023-12-20T07:21:56;9.28;;;2.58;;
82000;SDS011;71510;50.558;7.258;2023-12-20T07:24:23;11.22;;;2.25;;
82000;SDS011;71510;50.558;7.258;2023-12-20T07:26:51;12.82;;;2.92;;
82000;SDS011;71510;50.558;7.258;2023-12-20T07:29:19;11.85;;;3.10;;
82000;SDS011;71510;50.558;7.258;2023-12-20T07:31:47;12.63;;;3.10;;
82000;SDS011;71510;50.558;7.258;2023-12-20T07:34:14;16.00;;;3.72;;
82000;SDS011;71510;50.558;7.258;2023-12-20T07:36:41;15.18;;;4.22;;
82000;SDS011;71510;50.558;7.258;2023-12-20T07:39:09;13.35;;;3.35;;
82000;SDS011;71510;50.558;7.258;2023-12-20T07:41:36;13.83;;;3.00;;
82000;SDS011;71510;50.558;7.258;2023-12-20T07:44:04;12.95;;;3.15;;
82000;SDS011;71510;50.558;7.258;2023-12-20T07:46:32;10.58;;;3.12;;
82000;SDS011;71510;50.558;7.258;2023-12-20T07:49:00;22.50;;;3.87;;
82000;SDS011;71510;50.558;7.258;2023-12-20T07:51:27;14.85;;;3.52;;
82000;SDS011;71510;50.558;7.258;2023-12-20T07:53:54;10.55;;;2.75;;
82000;SDS011;71510;50.558;7.258;2023-12-20T07:56:22;11.80;;;2.65;;
82000;SDS011;71510;50.558;7.258;2023-12-20T07:58:49;10.48;;;2.83;;
82000;SDS011;71510;50.558;7.258;2023-12-20T08:01:16;13.72;;;2.75;;
82000;SDS011;71510;50.558;7.258;2023-12-20T08:03:44;9.45;;;2.92;;
82000;SDS011;71510;50.558;7.258;2023-12-20T08:06:12;11.73;;;2.62;;
82000;SDS011;71510;50.558;7.258;2023-12-20T08:08:40;12.93;;;2.87;;
82000;SDS011;71510;50.558;7.258;2023-12-20T08:11:07;14.78;;;3.10;;
82000;SDS011;71510;50.558;7.258;2023-12-20T08:13:34;15.15;;;2.80;;
82000;SDS011;71510;50.558;7.258;2023-12-20T08:16:01;16.00;;;2.87;;
82000;SDS011;71510;50.558;7.258;2023-12-20T08:18:29;14.00;;;2.77;;
82000;SDS011;71510;50.558;7.258;2023-12-20T08:20:56;16.00;;;2.60;;
82000;SDS011;71510;50.558;7.258;2023-12-20T08:23:24;13.28;;;3.05;;
82000;SDS011;71510;50.558;7.258;2023-12-20T08:25:51;11.73;;;3.20;;
82000;SDS011;71510;50.558;7.258;2023-12-20T08:28:18;11.73;;;3.70;;
82000;SDS011;71510;50.558;7.258;2023-12-20T08:30:45;16.02;;;3.77;;
82000;SDS011;71510;50.558;7.258;2023-12-20T08:33:13;18.02;;;3.25;;
82000;SDS011;71510;50.558;7.258;2023-12-20T08:35:40;12.73;;;2.98;;
82000;SDS011;71510;50.558;7.258;2023-12-20T08:38:07;12.15;;;2.52;;
82000;SDS011;71510;50.558;7.258;2023-12-20T08:40:35;12.13;;;2.98;;
82000;SDS011;71510;50.558;7.258;2023-12-20T08:43:02;15.63;;;3.17;;
82000;SDS011;71510;50.558;7.258;2023-12-20T08:45:29;8.50;;;2.62;;
82000;SDS011;71510;50.558;7.258;2023-12-20T08:47:57;16.07;;;3.50;;
82000;SDS011;71510;50.558;7.258;2023-12-20T08:50:24;13.62;;;2.22;;
82000;SDS011;71510;50.558;7.258;2023-12-20T08:52:51;9.50;;;2.67;;
82000;SDS011;71510;50.558;7.258;2023-12-20T08:55:19;13.15;;;3.20;;
82000;SDS011;71510;50.558;7.258;2023-12-20T08:57:46;12.25;;;3.35;;
82000;SDS011;71510;50.558;7.258;2023-12-20T09:00:13;11.75;;;3.20;;
82000;SDS011;71510;50.558;7.258;2023-12-20T09:02:41;13.85;;;3.10;;
82000;SDS011;71510;50.558;7.258;2023-12-20T09:05:08;13.95;;;3.25;;
82000;SDS011;71510;50.558;7.258;2023-12-20T09:07:35;18.35;;;3.60;;
82000;SDS011;71510;50.558;7.258;2023-12-20T09:10:03;14.40;;;3.10;;
82000;SDS011;71510;50.558;7.258;2023-12-20T09:12:30;16.23;;;3.00;;
82000;SDS011;71510;50.558;7.258;2023-12-20T09:14:57;9.58;;;2.60;;
82000;SDS011;71510;50.558;7.258;2023-12-20T09:17:25;9.28;;;2.62;;
82000;SDS011;71510;50.558;7.258;2023-12-20T09:19:52;10.75;;;2.67;;
82000;SDS011;71510;50.558;7.258;2023-12-20T09:22:20;11.40;;;2.45;;
82000;SDS011;71510;50.558;7.258;2023-12-20T09:24:47;15.30;;;2.70;;
82000;SDS011;71510;50.558;7.258;2023-12-20T09:27:14;9.88;;;2.20;;
82000;SDS011;71510;50.558;7.258;2023-12-20T09:29:42;11.10;;;3.58;;
82000;SDS011;71510;50.558;7.258;2023-12-20T09:32:09;14.18;;;2.17;;
82000;SDS011;71510;50.558;7.258;2023-12-20T09:34:36;12.88;;;3.20;;
82000;SDS011;71510;50.558;7.258;2023-12-20T09:37:04;11.10;;;2.58;;
82000;SDS011;71510;50.558;7.258;2023-12-20T09:39:32;10.38;;;2.30;;
82000;SDS011;71510;50.558;7.258;2023-12-20T09:42:03;10.03;;;2.20;;
82000;SDS011;71510;50.558;7.258;2023-12-20T09:44:31;11.22;;;2.50;;
82000;SDS011;71510;50.558;7.258;2023-12-20T09:46:59;14.93;;;2.55;;
82000;SDS011;71510;50.558;7.258;2023-12-20T09:49:52;13.28;;;2.22;;
82000;SDS011;71510;50.558;7.258;2023-12-20T09:52:20;8.50;;;2.45;;
82000;SDS011;71510;50.558;7.258;2023-12-20T09:54:49;11.63;;;2.30;;
82000;SDS011;71510;50.558;7.258;2023-12-20T09:57:16;14.55;;;3.33;;
82000;SDS011;71510;50.558;7.258;2023-12-20T09:59:44;10.98;;;2.17;;
82000;SDS011;71510;50.558;7.258;2023-12-20T10:02:12;6.78;;;1.72;;
82000;SDS011;71510;50.558;7.258;2023-12-20T10:04:46;13.70;;;2.10;;
82000;SDS011;71510;50.558;7.258;2023-12-20T10:07:12;8.00;;;1.75;;
82000;SDS011;71510;50.558;7.258;2023-12-20T10:09:39;12.90;;;2.02;;
82000;SDS011;71510;50.558;7.258;2023-12-20T10:12:08;9.88;;;2.35;;
82000;SDS011;71510;50.558;7.258;2023-12-20T10:14:35;9.75;;;2.60;;
82000;SDS011;71510;50.558;7.258;2023-12-20T10:17:03;15.48;;;2.75;;
82000;SDS011;71510;50.558;7.258;2023-12-20T10:19:30;11.40;;;2.40;;
82000;SDS011;71510;50.558;7.258;2023-12-20T10:22:01;9.63;;;1.50;;
82000;SDS011;71510;50.558;7.258;2023-12-20T10:24:30;9.95;;;2.58;;
82000;SDS011;71510;50.558;7.258;2023-12-20T10:27:07;8.10;;;2.50;;
82000;SDS011;71510;50.558;7.258;2023-12-20T10:29:37;12.15;;;2.50;;
82000;SDS011;71510;50.558;7.258;2023-12-20T10:32:24;6.85;;;2.20;;
82000;SDS011;71510;50.558;7.258;2023-12-20T10:34:54;7.78;;;2.00;;
82000;SDS011;71510;50.558;7.258;2023-12-20T10:37:22;13.93;;;2.55;;
82000;SDS011;71510;50.558;7.258;2023-12-20T10:39:50;11.25;;;2.05;;
82000;SDS011;71510;50.558;7.258;2023-12-20T10:42:20;9.58;;;2.08;;
82000;SDS011;71510;50.558;7.258;2023-12-20T10:44:47;10.30;;;2.37;;
82000;SDS011;71510;50.558;7.258;2023-12-20T10:47:14;11.78;;;2.98;;
82000;SDS011;71510;50.558;7.258;2023-12-20T10:49:42;9.05;;;2.30;;
82000;SDS011;71510;50.558;7.258;2023-12-20T10:52:11;13.50;;;2.02;;
82000;SDS011;71510;50.558;7.258;2023-12-20T10:54:39;13.10;;;2.70;;
82000;SDS011;71510;50.558;7.258;2023-12-20T10:57:07;9.43;;;2.22;;
82000;SDS011;71510;50.558;7.258;2023-12-20T10:59:36;8.90;;;2.40;;
82000;SDS011;71510;50.558;7.258;2023-12-20T11:02:06;7.20;;;2.40;;
82000;SDS011;71510;50.558;7.258;2023-12-20T11:04:40;10.83;;;2.40;;
82000;SDS011;71510;50.558;7.258;2023-12-20T11:07:08;13.72;;;3.35;;
82000;SDS011;71510;50.558;7.258;2023-12-20T11:09:40;8.70;;;1.98;;
82000;SDS011;71510;50.558;7.258;2023-12-20T11:14:41;7.65;;;2.15;;
82000;SDS011;71510;50.558;7.258;2023-12-20T11:17:07;7.80;;;2.50;;
82000;SDS011;71510;50.558;7.258;2023-12-20T11:19:38;15.13;;;2.45;;
82000;SDS011;71510;50.558;7.258;2023-12-20T11:22:05;10.50;;;2.33;;
82000;SDS011;71510;50.558;7.258;2023-12-20T11:24:33;13.13;;;2.70;;
82000;SDS011;71510;50.558;7.258;2023-12-20T11:27:02;11.45;;;2.27;;
82000;SDS011;71510;50.558;7.258;2023-12-20T11:29:30;7.17;;;2.02;;
82000;SDS011;71510;50.558;7.258;2023-12-20T11:31:59;11.05;;;2.33;;
82000;SDS011;71510;50.558;7.258;2023-12-20T11:34:27;13.28;;;2.45;;
82000;SDS011;71510;50.558;7.258;2023-12-20T11:37:00;12.60;;;2.80;;
82000;SDS011;71510;50.558;7.258;2023-12-20T11:39:25;11.00;;;3.25;;
82000;SDS011;71510;50.558;7.258;2023-12-20T11:41:53;11.78;;;2.33;;
82000;SDS011;71510;50.558;7.258;2023-12-20T11:44:21;8.08;;;2.62;;
82000;SDS011;71510;50.558;7.258;2023-12-20T11:46:48;9.55;;;2.02;;
82000;SDS011;71510;50.558;7.258;2023-12-20T11:49:16;9.90;;;2.40;;
82000;SDS011;71510;50.558;7.258;2023-12-20T11:51:43;12.82;;;3.15;;
82000;SDS011;71510;50.558;7.258;2023-12-20T11:54:11;7.70;;;2.25;;
82000;SDS011;71510;50.558;7.258;2023-12-20T11:56:38;12.80;;;2.92;;
82000;SDS011;71510;50.558;7.258;2023-12-20T11:59:05;8.85;;;2.65;;
82000;SDS011;71510;50.558;7.258;2023-12-20T12:01:34;10.00;;;2.22;;
82000;SDS011;71510;50.558;7.258;2023-12-20T12:04:05;10.80;;;2.27;;
82000;SDS011;71510;50.558;7.258;2023-12-20T12:06:32;8.20;;;2.47;;
82000;SDS011;71510;50.558;7.258;2023-12-20T12:09:00;12.55;;;2.80;;
82000;SDS011;71510;50.558;7.258;2023-12-20T12:11:27;10.35;;;3.02;;
82000;SDS011;71510;50.558;7.258;2023-12-20T12:13:54;8.58;;;2.50;;
82000;SDS011;71510;50.558;7.258;2023-12-20T12:16:22;10.38;;;2.67;;
82000;SDS011;71510;50.558;7.258;2023-12-20T12:18:58;11.88;;;2.85;;
82000;SDS011;71510;50.558;7.258;2023-12-20T12:21:25;8.30;;;2.58;;
82000;SDS011;71510;50.558;7.258;2023-12-20T12:23:53;11.57;;;3.20;;
82000;SDS011;71510;50.558;7.258;2023-12-20T12:26:20;9.33;;;3.20;;
82000;SDS011;71510;50.558;7.258;2023-12-20T12:28:47;11.05;;;2.70;;
82000;SDS011;71510;50.558;7.258;2023-12-20T12:31:14;13.55;;;3.58;;
82000;SDS011;71510;50.558;7.258;2023-12-20T12:33:42;11.73;;;2.45;;
82000;SDS011;71510;50.558;7.258;2023-12-20T12:36:10;10.85;;;2.87;;
82000;SDS011;71510;50.558;7.258;2023-12-20T12:38:37;10.13;;;2.65;;
82000;SDS011;71510;50.558;7.258;2023-12-20T12:41:05;13.58;;;2.95;;
82000;SDS011;71510;50.558;7.258;2023-12-20T12:43:33;12.70;;;2.62;;
82000;SDS011;71510;50.558;7.258;2023-12-20T12:46:00;13.90;;;2.50;;
82000;SDS011;71510;50.558;7.258;2023-12-20T12:48:28;12.47;;;3.05;;
82000;SDS011;71510;50.558;7.258;2023-12-20T12:50:55;9.55;;;2.60;;
82000;SDS011;71510;50.558;7.258;2023-12-20T12:53:24;9.20;;;3.02;;
82000;SDS011;71510;50.558;7.258;2023-12-20T12:55:53;7.20;;;2.60;;
82000;SDS011;71510;50.558;7.258;2023-12-20T12:58:21;10.93;;;3.15;;
82000;SDS011;71510;50.558;7.258;2023-12-20T13:00:48;8.43;;;2.83;;
82000;SDS011;71510;50.558;7.258;2023-12-20T13:03:15;12.25;;;3.08;;
82000;SDS011;71510;50.558;7.258;2023-12-20T13:05:43;8.00;;;2.90;;
82000;SDS011;71510;50.558;7.258;2023-12-20T13:08:11;6.45;;;2.45;;
82000;SDS011;71510;50.558;7.258;2023-12-20T13:10:38;8.00;;;2.80;;
82000;SDS011;71510;50.558;7.258;2023-12-20T13:13:05;8.30;;;2.47;;
82000;SDS011;71510;50.558;7.258;2023-12-20T13:15:33;9.13;;;2.22;;
82000;SDS011;71510;50.558;7.258;2023-12-20T13:18:00;7.17;;;2.95;;
82000;SDS011;71510;50.558;7.258;2023-12-20T13:20:27;11.53;;;2.90;;
82000;SDS011;71510;50.558;7.258;2023-12-20T13:22:55;10.72;;;2.35;;
82000;SDS011;71510;50.558;7.258;2023-12-20T13:25:22;7.72;;;2.37;;
82000;SDS011;71510;50.558;7.258;2023-12-20T13:27:50;11.35;;;2.67;;
82000;SDS011;71510;50.558;7.258;2023-12-20T13:30:17;9.58;;;2.42;;
82000;SDS011;71510;50.558;7.258;2023-12-20T13:32:44;9.10;;;3.77;;
82000;SDS011;71510;50.558;7.258;2023-12-20T13:35:12;11.03;;;2.60;;
82000;SDS011;71510;50.558;7.258;2023-12-20T13:37:39;9.98;;;2.33;;
82000;SDS011;71510;50.558;7.258;2023-12-20T13:40:07;5.97;;;2.35;;
82000;SDS011;71510;50.558;7.258;2023-12-20T13:42:34;10.90;;;2.37;;
82000;SDS011;71510;50.558;7.258;2023-12-20T13:45:02;6.33;;;2.05;;
82000;SDS011;71510;50.558;7.258;2023-12-20T13:47:31;6.67;;;2.30;;
82000;SDS011;71510;50.558;7.258;2023-12-20T13:49:58;7.35;;;2.27;;
82000;SDS011;71510;50.558;7.258;2023-12-20T13:52:26;8.40;;;2.20;;
82000;SDS011;71510;50.558;7.258;2023-12-20T13:54:53;6.67;;;2.25;;
82000;SDS011;71510;50.558;7.258;2023-12-20T13:57:20;6.85;;;1.95;;
82000;SDS011;71510;50.558;7.258;2023-12-20T13:59:48;6.80;;;1.77;;
82000;SDS011;71510;50.558;7.258;2023-12-20T14:02:15;4.72;;;1.77;;
82000;SDS011;71510;50.558;7.258;2023-12-20T14:04:44;5.40;;;1.60;;
82000;SDS011;71510;50.558;7.258;2023-12-20T14:07:11;5.75;;;1.75;;
82000;SDS011;71510;50.558;7.258;2023-12-20T14:09:39;3.67;;;1.65;;
82000;SDS011;71510;50.558;7.258;2023-12-20T14:12:08;5.80;;;1.50;;
82000;SDS011;71510;50.558;7.258;2023-12-20T14:14:35;5.20;;;1.50;;
82000;SDS011;71510;50.558;7.258;2023-12-20T14:17:02;4.67;;;1.50;;
82000;SDS011;71510;50.558;7.258;2023-12-20T14:19:32;6.33;;;1.35;;
82000;SDS011;71510;50.558;7.258;2023-12-20T14:21:59;4.03;;;1.10;;
82000;SDS011;71510;50.558;7.258;2023-12-20T14:24:28;5.78;;;1.47;;
82000;SDS011;71510;50.558;7.258;2023-12-20T14:26:55;3.15;;;1.12;;
82000;SDS011;71510;50.558;7.258;2023-12-20T14:29:22;6.75;;;1.45;;
82000;SDS011;71510;50.558;7.258;2023-12-20T14:31:50;4.17;;;0.98;;
82000;SDS011;71510;50.558;7.258;2023-12-20T14:34:17;2.75;;;0.90;;
82000;SDS011;71510;50.558;7.258;2023-12-20T14:36:44;5.30;;;1.30;;
82000;SDS011;71510;50.558;7.258;2023-12-20T14:39:12;5.92;;;1.20;;
82000;SDS011;71510;50.558;7.258;2023-12-20T14:41:39;5.17;;;1.00;;
82000;SDS011;71510;50.558;7.258;2023-12-20T14:44:07;1.95;;;1.25;;
82000;SDS011;71510;50.558;7.258;2023-12-20T14:46:34;3.80;;;1.00;;